Flight Track Log - Related Links

Times and Time Zones

All times are in EDT time to prevent confusion due to time zone crossing. See the N70AG flight status page for this flight to view local times or setup timezone preferences in your user account.

Time Position Orientation Groundspeed Altitude Reporting Facility
EDT Latitude Longitude Course Direction KTS MPH feet Rate Location/Type
Wed 01:01:08 PM 32.7500 -117.2500 83° East 201 231 2,500  Level Southern California TRACON
Wed 01:02:00 PM 32.7569 -117.3100 278° West 222 255 5,300 3,211 Climbing Los Angeles Center
Wed 01:03:02 PM 32.6936 -117.3183 186° South 249 287 8,600 3,097 Climbing Los Angeles Center
Wed 01:04:04 PM 32.6528 -117.2464 124° Southeast 260 299 11,700 2,710 Climbing Los Angeles Center
Wed 01:05:06 PM 32.6364 -117.1514 102° East 290 334 14,200 2,400 Climbing Los Angeles Center
Wed 01:06:00 PM 32.6789 -116.1117 83° East  Level FlightAware Approximate
Wed 01:06:09 PM 32.6203 -117.0500 101° East 306 352 16,700  Level Los Angeles Center
Wed 01:07:11 PM 32.6164 -116.9194 92° East 335 386 19,600 2,565 Climbing Los Angeles Center
Wed 01:08:13 PM 32.6269 -116.8078 84° East 341 392 22,000 2,129 Climbing Los Angeles Center
Wed 01:09:15 PM 32.6375 -116.6925 84° East 351 404 24,000 1,355 Climbing Los Angeles Center
Wed 01:10:17 PM 32.6508 -116.5622 83° East 399 459 24,800 1,355 Climbing Los Angeles Center
Wed 01:11:19 PM 32.6625 -116.4219 84° East 430 495 26,800 2,226 Climbing Los Angeles Center
Wed 01:12:21 PM 32.6803 -116.2508 83° East 442 509 29,400 2,208 Climbing Los Angeles Center
Wed 01:13:24 PM 32.6953 -116.1089 83° East 441 507 31,400 2,112 Climbing Los Angeles Center
Wed 01:14:26 PM 32.7236 -115.9689 76° East 439 505 33,800 2,032 Climbing Los Angeles Center
Wed 01:15:28 PM 32.7506 -115.8300 77° East 436 502 35,600 1,905 Climbing Los Angeles Center
Wed 01:16:32 PM 32.7828 -115.6633 77° East 433 498 37,800 1,839 Climbing Los Angeles Center
Wed 01:17:32 PM 32.8097 -115.5261 77° East 428 493 39,400 1,328 Climbing Los Angeles Center
Wed 01:18:34 PM 32.8347 -115.3894 78° East 426 490 40,500 774 Climbing Los Angeles Center
Wed 01:19:36 PM 32.8614 -115.2506 77° East 431 496 41,000 242 Climbing Los Angeles Center
Wed 01:20:38 PM 32.8828 -115.1333 78° East 447 514 41,000  Level Los Angeles Center
Wed 01:21:41 PM 32.9164 -114.9489 78° East 474 545 41,000  Level Los Angeles Center
Wed 01:22:43 PM 32.9469 -114.7569 79° East 492 566 41,000  Level Los Angeles Center
Wed 01:23:45 PM 32.9600 -114.5958 84° East 491 565 41,000  Level Los Angeles Center
Wed 01:24:47 PM 32.9703 -114.4356 86° East 488 562 41,000  Level Los Angeles Center
Wed 01:25:37 PM 32.9814 -114.2883 85° East 486 559 41,000  Level Albuquerque Center
Wed 01:26:39 PM 32.9925 -114.1272 85° East 487 560 41,000  Level Albuquerque Center
Wed 01:27:41 PM 33.0042 -113.9672 85° East 487 560 41,000  Level Albuquerque Center
Wed 01:28:43 PM 33.0161 -113.8067 85° East 487 560 41,000  Level Albuquerque Center
Wed 01:29:58 PM 33.0569 -113.6089 76° East 485 558 41,000  Level Los Angeles Center
Wed 01:30:47 PM 33.0828 -113.4944 75° East 484 557 41,000  Level Albuquerque Center
Wed 01:31:49 PM 33.1169 -113.3397 75° East 481 554 41,000  Level Albuquerque Center
Wed 01:32:51 PM 33.1569 -113.1531 76° East 482 555 41,000  Level Albuquerque Center
Wed 01:33:53 PM 33.1903 -112.9956 76° East 485 558 41,000  Level Albuquerque Center
Wed 01:34:55 PM 33.2242 -112.8394 75° East 486 559 41,000  Level Albuquerque Center
Wed 01:35:57 PM 33.2564 -112.6836 76° East 483 556 41,000  Level Albuquerque Center
Wed 01:36:59 PM 33.2919 -112.5100 76° East 483 556 41,000  Level Albuquerque Center
Wed 01:38:02 PM 33.3242 -112.3550 76° East 483 556 41,000  Level Albuquerque Center
Wed 01:39:03 PM 33.3544 -112.2156 75° East 482 555 41,000  Level Albuquerque Center
Wed 01:40:05 PM 33.3928 -112.0272 76° East 487 560 41,000  Level Albuquerque Center
Wed 01:41:07 PM 33.4242 -111.8736 76° East 480 552 41,000  Level Albuquerque Center
Wed 01:42:09 PM 33.4558 -111.7203 76° East 477 549 41,000  Level Albuquerque Center
Wed 01:43:11 PM 33.4900 -111.5508 76° East 482 555 41,000  Level Albuquerque Center
Wed 01:44:13 PM 33.5231 -111.3850 77° East 479 551 41,000  Level Albuquerque Center
Wed 01:45:16 PM 33.5539 -111.2306 76° East 479 551 41,000  Level Albuquerque Center
Wed 01:46:18 PM 33.5867 -111.0639 77° East 478 550 41,000  Level Albuquerque Center
Wed 01:47:20 PM 33.6153 -110.9192 77° East 480 552 41,000  Level Albuquerque Center
Wed 01:48:22 PM 33.6447 -110.7672 77° East 475 547 41,000  Level Albuquerque Center
Wed 01:49:24 PM 33.6742 -110.6122 77° East 478 550 41,000  Level Albuquerque Center
Wed 01:50:26 PM 33.7089 -110.4269 77° East 477 549 41,000  Level Albuquerque Center
Wed 01:51:28 PM 33.7381 -110.2722 77° East 477 549 41,000  Level Albuquerque Center
Wed 01:52:30 PM 33.7681 -110.1186 77° East 477 549 41,000  Level Albuquerque Center
Wed 01:53:32 PM 33.7972 -109.9628 77° East 478 550 41,000  Level Albuquerque Center
Wed 01:54:34 PM 33.8261 -109.8092 77° East 476 548 41,000  Level Albuquerque Center
Wed 01:55:36 PM 33.8550 -109.6533 77° East 478 550 41,000  Level Albuquerque Center
Wed 01:56:38 PM 33.8883 -109.4667 78° East 478 550 41,000  Level Albuquerque Center
Wed 01:57:40 PM 33.9175 -109.3094 77° East 482 555 41,000  Level Albuquerque Center
Wed 01:58:42 PM 33.9450 -109.1542 78° East 480 552 41,000  Level Albuquerque Center
Wed 01:59:44 PM 33.9728 -108.9989 78° East 479 551 41,000  Level Albuquerque Center
Wed 02:00:46 PM 34.0006 -108.8425 78° East 479 551 41,000  Level Albuquerque Center
Wed 02:01:48 PM 34.0339 -108.6539 78° East 481 554 41,000  Level Albuquerque Center
Wed 02:02:50 PM 34.0617 -108.4961 78° East 482 555 41,000  Level Albuquerque Center
Wed 02:03:52 PM 34.0886 -108.3383 78° East 483 556 41,000  Level Albuquerque Center
Wed 02:04:54 PM 34.1158 -108.1817 78° East 482 555 41,000  Level Albuquerque Center
Wed 02:05:56 PM 34.1414 -108.0153 79° East 482 555 41,000  Level Albuquerque Center
Wed 02:06:58 PM 34.1686 -107.8561 78° East 484 557 41,000  Level Albuquerque Center
Wed 02:08:01 PM 34.1958 -107.6981 78° East 482 555 41,000  Level Albuquerque Center
Wed 02:09:03 PM 34.2269 -107.5078 79° East 482 555 41,000  Level Albuquerque Center
Wed 02:10:05 PM 34.2531 -107.3458 79° East 488 562 41,000  Level Albuquerque Center
Wed 02:11:07 PM 34.2792 -107.1864 79° East 486 559 41,000  Level Albuquerque Center
Wed 02:12:09 PM 34.3058 -107.0289 78° East 481 554 41,000  Level Albuquerque Center
Wed 02:13:11 PM 34.3331 -106.8461 80° East 486 559 41,000  Level Albuquerque Center
Wed 02:14:13 PM 34.3419 -106.6819 86° East 490 564 41,000  Level Albuquerque Center
Wed 02:15:15 PM 34.3461 -106.5161 88° East 495 570 41,000  Level Albuquerque Center
Wed 02:16:17 PM 34.3503 -106.3511 88° East 494 568 41,000  Level Albuquerque Center
Wed 02:17:19 PM 34.3542 -106.1656 88° East 491 565 41,000  Level Albuquerque Center
Wed 02:18:21 PM 34.3578 -105.9986 88° East 490 564 41,000  Level Albuquerque Center
Wed 02:19:23 PM 34.3614 -105.8325 88° East 492 566 41,000  Level Albuquerque Center
Wed 02:20:25 PM 34.3636 -105.6664 89° East 491 565 41,000  Level Albuquerque Center
Wed 02:21:27 PM 34.3603 -105.4997 91° East 491 565 41,000  Level Albuquerque Center
Wed 02:22:29 PM 34.3556 -105.3339 92° East 490 564 41,000  Level Albuquerque Center
Wed 02:23:31 PM 34.3494 -105.1386 92° East 493 567 41,000  Level Albuquerque Center
Wed 02:24:33 PM 34.3453 -104.9725 92° East 492 566 41,000  Level Albuquerque Center
Wed 02:25:35 PM 34.3417 -104.8094 91° East 485 558 41,000  Level Albuquerque Center
Wed 02:26:37 PM 34.3353 -104.6431 93° East 490 564 41,000  Level Albuquerque Center
Wed 02:27:38 PM 34.3300 -104.4783 92° East 488 562 41,000  Level Albuquerque Center
Wed 02:28:40 PM 34.3242 -104.3114 92° East 492 566 41,000  Level Albuquerque Center
Wed 02:29:42 PM 34.3175 -104.1183 92° East 491 565 41,000  Level Albuquerque Center
Wed 02:30:44 PM 34.3111 -103.9550 93° East 488 562 41,000  Level Albuquerque Center
Wed 02:31:46 PM 34.3050 -103.7889 93° East 490 564 41,000  Level Albuquerque Center
Wed 02:32:48 PM 34.2981 -103.6228 93° East 491 565 41,000  Level Albuquerque Center
Wed 02:33:50 PM 34.2917 -103.4592 93° East 489 563 41,000  Level Albuquerque Center
Wed 02:34:52 PM 34.2839 -103.2950 93° East 487 560 41,000  Level Albuquerque Center
Wed 02:35:53 PM 34.2756 -103.1311 93° East 486 559 41,000  Level Albuquerque Center
Wed 02:36:55 PM 34.2675 -102.9461 93° East 488 562 41,000  Level Albuquerque Center
Wed 02:37:57 PM 34.2603 -102.7844 93° East 485 558 41,000  Level Albuquerque Center
Wed 02:38:59 PM 34.2528 -102.6231 93° East 484 557 41,000  Level Albuquerque Center
Wed 02:40:01 PM 34.2442 -102.4597 94° East 487 560 41,000  Level Albuquerque Center
Wed 02:41:03 PM 34.2361 -102.2983 93° East 486 559 41,000  Level Albuquerque Center
Wed 02:42:05 PM 34.2253 -102.1036 94° East 487 560 41,000  Level Albuquerque Center
Wed 02:43:06 PM 34.2172 -101.9394 93° East 490 564 41,000  Level Albuquerque Center
Wed 02:44:08 PM 34.2078 -101.7758 94° East 492 566 41,000  Level Albuquerque Center
Wed 02:45:10 PM 34.1983 -101.6103 94° East 493 567 41,000  Level Albuquerque Center
Wed 02:46:12 PM 34.1894 -101.4503 94° East 488 562 41,000  Level Albuquerque Center
Wed 02:47:14 PM 34.1806 -101.2878 94° East 487 560 41,000  Level Albuquerque Center
Wed 02:48:21 PM 34.1692 -101.0958 94° East 485 558 41,000  Level Fort Worth Center
Wed 02:49:21 PM 34.1594 -100.9297 94° East 483 556 41,000  Level Fort Worth Center
Wed 02:50:21 PM 34.1472 -100.7661 95° East 483 556 41,000  Level Fort Worth Center
Wed 02:51:21 PM 34.1389 -100.6078 94° East 483 556 41,000  Level Fort Worth Center
Wed 02:52:21 PM 34.1283 -100.4444 94° East 483 556 41,000  Level Fort Worth Center
Wed 02:53:21 PM 34.1153 -100.2833 96° East 483 556 41,000  Level Fort Worth Center
Wed 02:54:21 PM 34.1044 -100.1200 95° East 483 556 41,000  Level Fort Worth Center
Wed 02:55:21 PM 34.0953 -99.9567 94° East 483 556 41,000  Level Fort Worth Center
Wed 02:56:21 PM 34.0819 -99.7883 95° East 489 563 41,000  Level Fort Worth Center
Wed 02:57:21 PM 34.0722 -99.6350 94° East 483 556 41,000  Level Fort Worth Center
Wed 02:58:21 PM 34.0583 -99.4667 96° East 483 556 41,000  Level Fort Worth Center
Wed 02:59:21 PM 34.0442 -99.3083 96° East 483 556 41,000  Level Fort Worth Center
Wed 03:00:21 PM 34.0339 -99.1503 94° East 477 549 41,000  Level Fort Worth Center
Wed 03:01:21 PM 34.0194 -98.9797 96° East 477 549 41,000  Level Fort Worth Center
Wed 03:02:21 PM 34.0067 -98.8217 96° East 477 549 41,000  Level Fort Worth Center
Wed 03:03:21 PM 33.9939 -98.6686 96° East 460 529 41,000  Level Fort Worth Center
Wed 03:04:21 PM 33.9725 -98.5056 99° East 471 542 41,000  Level Fort Worth Center
Wed 03:05:21 PM 33.9464 -98.3650 103° East 481 554 41,000  Level Fort Worth Center
Wed 03:06:21 PM 33.9142 -98.1869 102° East 491 565 41,000  Level Fort Worth Center
Wed 03:07:21 PM 33.8858 -98.0339 103° East 479 551 41,000  Level Fort Worth Center
Wed 03:08:21 PM 33.8553 -97.8736 103° East 474 545 41,000  Level Fort Worth Center
Wed 03:09:21 PM 33.8286 -97.7186 102° East 479 551 41,000  Level Fort Worth Center
Wed 03:10:21 PM 33.7997 -97.5733 103° East 484 557 41,000  Level Fort Worth Center
Wed 03:11:21 PM 33.7664 -97.4183 104° East 483 556 41,000  Level Fort Worth Center
Wed 03:12:21 PM 33.7372 -97.2611 103° East 483 556 41,000  Level Fort Worth Center
Wed 03:13:21 PM 33.7117 -97.0989 101° East 488 562 41,000  Level Fort Worth Center
Wed 03:14:21 PM 33.6758 -96.9267 104° East 488 562 41,000  Level Fort Worth Center
Wed 03:15:21 PM 33.6436 -96.7697 104° East 488 562 41,000  Level Fort Worth Center
Wed 03:16:21 PM 33.6136 -96.6103 103° East 481 554 41,000  Level Fort Worth Center
Wed 03:17:21 PM 33.5833 -96.4511 103° East 486 559 41,000  Level Fort Worth Center
Wed 03:18:21 PM 33.5569 -96.2892 101° East 486 559 41,000  Level Fort Worth Center
Wed 03:19:21 PM 33.5742 -96.1294 83° East 480 552 41,000  Level Fort Worth Center
Wed 03:20:21 PM 33.6122 -95.9792 73° East 468 539 41,000  Level Fort Worth Center
Wed 03:21:21 PM 33.6439 -95.8442 74° East 473 544 41,000  Level Fort Worth Center
Wed 03:22:21 PM 33.6858 -95.6936 71° East 473 544 41,000  Level Fort Worth Center
Wed 03:23:21 PM 33.7233 -95.5406 74° East 473 544 41,000  Level Fort Worth Center
Wed 03:24:21 PM 33.7647 -95.3897 72° East 473 544 41,000  Level Fort Worth Center
Wed 03:25:21 PM 33.8019 -95.2414 73° East 473 544 41,000  Level Fort Worth Center
Wed 03:26:21 PM 33.8431 -95.0853 72° East 473 544 41,000  Level Fort Worth Center
Wed 03:27:21 PM 33.8817 -94.9342 73° East 478 550 41,000  Level Fort Worth Center
Wed 03:28:21 PM 33.9206 -94.7828 73° East 478 550 41,000  Level Fort Worth Center
Wed 03:29:21 PM 33.9608 -94.6264 73° East 478 550 41,000  Level Fort Worth Center
Wed 03:30:55 PM 34.0203 -94.3844 73° East 471 542 41,000  Level Memphis Center
Wed 03:31:55 PM 34.0564 -94.2306 74° East 471 542 41,000  Level Memphis Center
Wed 03:32:55 PM 34.0944 -94.0744 74° East 476 548 41,000  Level Memphis Center
Wed 03:33:55 PM 34.1392 -93.9056 72° East 471 542 41,000  Level Memphis Center
Wed 03:34:55 PM 34.1747 -93.7514 74° East 471 542 41,000  Level Memphis Center
Wed 03:35:55 PM 34.1933 -93.5939 82° East 471 542 41,000  Level Memphis Center
Wed 03:36:55 PM 34.2122 -93.4339 82° East 471 542 41,000  Level Memphis Center
Wed 03:37:55 PM 34.2283 -93.2739 83° East 471 542 41,000  Level Memphis Center
Wed 03:38:55 PM 34.2236 -93.1178 92° East 471 542 41,000  Level Memphis Center
Wed 03:39:55 PM 34.2189 -92.9544 92° East 471 542 41,000  Level Memphis Center
Wed 03:40:55 PM 34.2344 -92.7967 83° East 477 549 41,000  Level Memphis Center
Wed 03:41:55 PM 34.2542 -92.6339 82° East 477 549 41,000  Level Memphis Center
Wed 03:42:55 PM 34.2758 -92.4786 80° East 482 555 41,000  Level Memphis Center
Wed 03:43:55 PM 34.2911 -92.3156 83° East 477 549 41,000  Level Memphis Center
Wed 03:44:55 PM 34.3100 -92.1525 82° East 483 556 41,000  Level Memphis Center
Wed 03:45:55 PM 34.3292 -91.9894 82° East 483 556 41,000  Level Memphis Center
Wed 03:46:55 PM 34.3411 -91.8589 84° East 483 556 41,000  Level Memphis Center
Wed 03:47:55 PM 34.3597 -91.6831 83° East 483 556 41,000  Level Memphis Center
Wed 03:48:55 PM 34.3781 -91.5222 82° East 483 556 41,000  Level Memphis Center
Wed 03:49:55 PM 34.3942 -91.3589 83° East 478 550 41,000  Level Memphis Center
Wed 03:50:55 PM 34.4119 -91.1956 82° East 483 556 41,000  Level Memphis Center
Wed 03:51:55 PM 34.4297 -91.0344 82° East 483 556 41,000  Level Memphis Center
Wed 03:52:55 PM 34.4431 -90.8758 84° East 478 550 41,000  Level Memphis Center
Wed 03:53:55 PM 34.4622 -90.7122 82° East 478 550 41,000  Level Memphis Center
Wed 03:54:55 PM 34.4794 -90.5361 83° East 483 556 41,000  Level Memphis Center
Wed 03:55:55 PM 34.4942 -90.3722 84° East 483 556 41,000  Level Memphis Center
Wed 03:56:55 PM 34.5106 -90.2108 83° East 475 547 41,000  Level Memphis Center
Wed 03:57:56 PM 34.5250 -90.0497 84° East 475 547 41,000  Level Memphis Center
Wed 03:58:55 PM 34.5392 -89.8856 84° East 481 554 41,000  Level Memphis Center
Wed 03:59:55 PM 34.5531 -89.7192 84° East 487 560 41,000  Level Memphis Center
Wed 04:00:55 PM 34.5686 -89.5575 83° East 487 560 41,000  Level Memphis Center
Wed 04:01:55 PM 34.5842 -89.3961 83° East 481 554 41,000  Level Memphis Center
Wed 04:02:55 PM 34.5994 -89.2319 84° East 481 554 41,000  Level Memphis Center
Wed 04:03:55 PM 34.6147 -89.0725 83° East 476 548 41,000  Level Memphis Center
Wed 04:04:55 PM 34.6294 -88.9108 84° East 483 556 41,000  Level Memphis Center
Wed 04:05:55 PM 34.6442 -88.7517 84° East 483 556 41,000  Level Memphis Center
Wed 04:06:55 PM 34.6567 -88.5897 85° East 483 556 41,000  Level Memphis Center
Wed 04:07:55 PM 34.6731 -88.4328 83° East 477 549 41,000  Level Memphis Center
Wed 04:08:55 PM 34.6872 -88.2708 84° East 477 549 41,000  Level Memphis Center
Wed 04:09:55 PM 34.6989 -88.0989 85° East 494 568 41,000  Level Memphis Center
Wed 04:12:18 PM 34.7322 -87.7314 84° East 480 552 41,000  Level Atlanta Center
Wed 04:13:18 PM 34.7433 -87.5650 85° East 485 558 41,000  Level Atlanta Center
Wed 04:14:18 PM 34.7564 -87.3989 84° East 485 558 41,000  Level Atlanta Center
Wed 04:15:18 PM 34.7669 -87.2347 85° East 490 564 41,000  Level Atlanta Center
Wed 04:16:18 PM 34.7794 -87.0708 85° East 490 564 41,000  Level Atlanta Center
Wed 04:17:18 PM 34.7897 -86.9069 86° East 490 564 41,000  Level Atlanta Center
Wed 04:18:18 PM 34.8019 -86.7428 85° East 490 564 41,000  Level Atlanta Center
Wed 04:19:18 PM 34.8117 -86.5814 86° East 485 558 41,000  Level Atlanta Center
Wed 04:20:18 PM 34.8231 -86.4172 85° East 480 552 41,000  Level Atlanta Center
Wed 04:21:18 PM 34.8344 -86.2581 85° East 480 552 41,000  Level Atlanta Center
Wed 04:22:18 PM 34.8456 -86.0939 85° East 480 552 41,000  Level Atlanta Center
Wed 04:23:18 PM 34.8544 -85.9347 86° East 480 552 41,000  Level Atlanta Center
Wed 04:24:18 PM 34.8633 -85.7628 86° East 480 552 41,000  Level Atlanta Center
Wed 04:25:18 PM 34.8694 -85.6058 87° East 466 536 41,000  Level Atlanta Center
Wed 04:26:18 PM 34.8797 -85.4442 86° East 466 536 41,000  Level Atlanta Center
Wed 04:27:18 PM 34.8900 -85.2822 86° East 471 542 41,000  Level Atlanta Center
Wed 04:28:18 PM 34.8978 -85.1228 87° East 471 542 41,000  Level Atlanta Center
Wed 04:29:18 PM 34.9053 -84.9758 86° East 476 548 41,000  Level Atlanta Center
Wed 04:30:18 PM 34.9147 -84.8189 86° East 476 548 41,000  Level Atlanta Center
Wed 04:31:18 PM 34.9217 -84.6594 87° East 476 548 41,000  Level Atlanta Center
Wed 04:32:18 PM 34.9308 -84.5075 86° East 465 535 41,000  Level Atlanta Center
Wed 04:33:18 PM 34.9375 -84.3506 87° East 460 529 41,000  Level Atlanta Center
Wed 04:34:18 PM 34.9461 -84.1958 86° East 460 529 41,000  Level Atlanta Center
Wed 04:35:18 PM 34.9525 -84.0414 87° East 460 529 41,000 100 Level Atlanta Center
Wed 04:36:18 PM 34.9608 -83.8792 86° East 465 535 41,200 600 Climbing Atlanta Center
Wed 04:37:18 PM 34.9667 -83.7269 87° East 460 529 42,200 1,000 Climbing Atlanta Center
Wed 04:38:18 PM 34.9747 -83.5722 86° East 460 529 43,200 750 Climbing Atlanta Center
Wed 04:39:18 PM 34.9822 -83.4178 87° East 460 529 43,700 500 Climbing Atlanta Center
Wed 04:40:18 PM 34.9814 -83.2581 90° East 460 529 44,200 500 Climbing Atlanta Center
Wed 04:41:18 PM 34.9531 -83.1061 103° East 460 529 44,700 400 Climbing Atlanta Center
Wed 04:42:18 PM 34.8911 -82.9372 114° Southeast 476 548 45,000 150 Climbing Atlanta Center
Wed 04:43:18 PM 34.8567 -82.8136 109° East 460 529 45,000  Level Atlanta Center
Wed 04:44:18 PM 34.8508 -82.6619 93° East 448 516 45,000  Level Atlanta Center
Wed 04:45:18 PM 34.8719 -82.5044 81° East 442 509 45,000 -700 Level Atlanta Center
Wed 04:46:18 PM 34.8908 -82.3472 82° East 450 518 43,600 -1,500 Descending Atlanta Center
Wed 04:47:18 PM 34.9114 -82.1922 81° East 455 524 42,000 -1,650 Descending Atlanta Center
Wed 04:48:18 PM 34.9339 -82.0219 81° East 461 531 40,300 -1,750 Descending Atlanta Center
Wed 04:49:18 PM 34.9500 -81.8644 83° East 472 543 38,500 -1,850 Descending Atlanta Center
Wed 04:50:18 PM 34.9219 -81.7031 102° East 489 563 36,600 -1,750 Descending Atlanta Center
Wed 04:51:18 PM 34.8958 -81.5392 101° East 478 550 35,000 -800 Descending Atlanta Center
Wed 04:52:18 PM 34.9028 -81.3719 87° East 484 557 35,000 -1,000 Level Atlanta Center
Wed 04:53:18 PM 34.9325 -81.2064 78° East 487 560 33,000 -2,000 Descending Atlanta Center
Wed 04:54:18 PM 34.9619 -81.0406 78° East 499 574 31,000 -2,350 Descending Atlanta Center
Wed 04:55:18 PM 34.9911 -80.8772 78° East 499 574 28,300 -2,650 Descending Atlanta Center
Wed 04:56:18 PM 35.0183 -80.7189 78° East 478 550 25,700 -2,674 Descending Atlanta Center
Wed 04:58:31 PM 35.0742 -80.4089 78° East 425 489 19,700 -2,736 Descending Washington Center
Wed 04:59:31 PM 35.1003 -80.2783 76° East 412 474 16,900 -1,835 Descending Washington Center
Wed 05:00:32 PM 35.1378 -80.1689 67° East 396 456 16,000 -458 Descending Washington Center
Wed 05:01:29 PM 35.1828 -80.0317 68° East 390 449 16,000 -51 Level Washington Center
Wed 05:02:29 PM 35.2178 -79.9292 67° East 373 429 15,900 -1,686 Descending Washington Center
Wed 05:03:30 PM 35.2556 -79.8092 69° East 348 400 12,600 -2,975 Descending Washington Center
Wed 05:04:30 PM 35.2903 -79.7067 67° East 348 400 9,900 -2,479 Descending Washington Center
Wed 05:05:31 PM 35.3250 -79.6042 67° East 318 366 7,600 -2,067 Descending Washington Center
Wed 05:06:29 PM 35.3506 -79.5264 68° East 282 325 5,800 -1,765 Descending Washington Center
Wed 05:07:30 PM 35.3806 -79.4389 67° East 254 292 4,100 -1,388 Descending Washington Center
Wed 05:08:30 PM 35.4056 -79.3736 65° Northeast 238 274 3,000 -756 Descending Washington Center
Wed 05:09:29 PM 35.4289 -79.2958 70° East 223 257 2,600 -407 Descending Washington Center

Login

Don't have an account? Register now (free) for customized features, flight alerts, and more!